Weather at Eliporto

Public forecast

Using degrees Celsius for public forecast. Weather courtesy of forecast.io.

Closest aviation weather report (METAR) to Eliporto

Closest report is Gioia Del Colle Air Base, 21.3 nm (39.4 km) E. Retrieved 2021/10/26 04:55 UTC (1 hour ago):

LIBV 260455Z VRB01KT 0300 R32L/0600 R14R/1000 FG OVC002 12/12 Q1018 RMK OVC VIS MIN 0300 WIND THR32 VRB02KT WIND THR14 28002KT RED

Closest aviation forecast (TAF) to Eliporto

Forecast is more than 12 hours old.

Closest forecast is Gioia Del Colle Air Base, 21.3 nm (39.4 km) E. Retrieved 2020/04/18 15:27 UTC (2 years ago):

TAF TAF COR LIBV 181705Z 1815/1903 18008KT CAVOK